KEHO

Details ICAO KEHO
Name Shelby Muni
Region United States
Timezone America/New_York (UTC-5.0)
Plans Departing 3
Arriving 4
Stats Elevation 847 ft / 258 m (AMSL)
Location 35.255089° -81.600931°
Runways 1
Magnetic Variation 7.260° W
Sunrise 2017-12-11 12:26:32 UTC / 2017-12-11 07:26:32 Local
Sunset 2017-12-11 22:15:54 UTC / 2017-12-11 17:15:54 Local
Advertisement - Login to hide

Runways

ID Width Length Bearing (true) Bearing (mag) Surface Threshold Offset Overrun Length
05 100 ft / 30 m 5,198 ft / 1,585 m 46.72° 53.98° Asphalt 0 ft / 0 m 0 ft / 0 m
23 100 ft / 30 m 5,198 ft / 1,585 m 226.73° 233.99° Asphalt 0 ft / 0 m 0 ft / 0 m

Map

Weather


0- 5 10 15 20 25 30 35+ Temperature / ° C

Clouds and Precipitation
Forecast for 2017-12-11 12:00 UTC. Updated 23 minutes ago

Ground ~20,000 ft ~40,000 ft Winds

METAR

KEHO 110725Z AUTO 19003KT 10SM CLR M02/M05 A3012 RMK AO2 T10161046

TAF

Not found

Frequencies

Recorded 118.42 MHz AWOS 3
Approach 134.75 MHz CHARLOTTE APP/DEP
Unicom 122.80 MHz CTAF/UNICOM
Warning: Do not use this data for real-world aviation or navigation. No guarantee of current accuracy is given.